createdAt,value
2023-07-14T00:02:07.055Z,90.00
2023-07-14T00:04:35.484Z,90.30
2023-07-14T00:07:04.983Z,89.70
2023-07-14T00:09:33.832Z,89.50
2023-07-14T00:12:01.699Z,89.70
2023-07-14T00:14:48.763Z,90.00
2023-07-14T00:17:16.537Z,90.70
2023-07-14T00:19:44.220Z,90.60
2023-07-14T00:22:16.859Z,90.80
2023-07-14T00:24:44.769Z,91.30
2023-07-14T00:27:21.730Z,90.80
2023-07-14T00:29:50.755Z,90.80
2023-07-14T00:32:23.728Z,90.70
2023-07-14T00:34:51.623Z,91.00
2023-07-14T00:37:20.067Z,90.90
2023-07-14T00:39:48.676Z,91.20
2023-07-14T00:42:18.217Z,91.60
2023-07-14T00:44:47.399Z,90.80
2023-07-14T00:47:28.445Z,91.00
2023-07-14T00:49:57.669Z,91.00
2023-07-14T00:52:39.003Z,91.40
2023-07-14T00:55:33.334Z,91.30
2023-07-14T00:58:01.145Z,91.20
2023-07-14T01:00:31.650Z,92.30
2023-07-14T01:03:01.107Z,92.10
2023-07-14T01:05:30.113Z,92.30
2023-07-14T01:07:59.154Z,91.90
2023-07-14T01:10:39.905Z,92.00
2023-07-14T01:13:09.871Z,92.20
2023-07-14T01:15:40.225Z,92.50
2023-07-14T01:18:10.358Z,92.10
2023-07-14T01:20:39.702Z,92.40
2023-07-14T01:23:21.842Z,92.60
2023-07-14T01:25:58.468Z,93.00
2023-07-14T01:28:26.183Z,93.20
2023-07-14T01:30:53.808Z,93.20
2023-07-14T01:33:22.424Z,93.50
2023-07-14T01:35:56.639Z,93.90
2023-07-14T01:38:24.811Z,93.70
2023-07-14T01:40:54.514Z,93.40
2023-07-14T01:43:22.599Z,94.00
2023-07-14T01:45:52.644Z,94.30
2023-07-14T01:48:25.576Z,94.30
2023-07-14T01:50:58.049Z,94.30
2023-07-14T01:53:51.401Z,94.50
2023-07-14T01:56:21.555Z,93.90
2023-07-14T01:59:01.705Z,94.40
2023-07-14T02:01:31.242Z,94.90
2023-07-14T02:03:59.850Z,94.80
2023-07-14T02:06:27.844Z,95.00
2023-07-14T02:08:55.594Z,95.40
2023-07-14T02:11:24.443Z,95.40
2023-07-14T02:13:53.672Z,95.40
2023-07-14T02:16:22.649Z,95.50
2023-07-14T02:18:51.542Z,95.30
2023-07-14T02:21:30.819Z,96.00
2023-07-14T02:24:00.895Z,98.30
2023-07-14T02:26:36.901Z,98.70
2023-07-14T02:29:10.848Z,99.90
2023-07-14T02:31:43.918Z,99.90
2023-07-14T02:34:14.124Z,99.90
2023-07-14T02:37:01.868Z,99.90
2023-07-14T02:39:38.331Z,99.90
2023-07-14T02:42:06.535Z,99.90
2023-07-14T02:44:37.816Z,99.90
2023-07-14T02:47:14.295Z,99.90
2023-07-14T02:49:43.036Z,99.90
2023-07-14T02:52:10.784Z,99.90
2023-07-14T02:54:40.304Z,99.90
2023-07-14T02:57:08.369Z,99.90
2023-07-14T02:59:36.046Z,99.90
2023-07-14T03:02:04.404Z,99.90
2023-07-14T03:04:32.138Z,99.90
2023-07-14T03:06:59.805Z,99.90
2023-07-14T03:09:27.539Z,99.90
2023-07-14T03:11:55.276Z,99.90
2023-07-14T03:14:22.936Z,99.90
2023-07-14T03:16:50.576Z,99.90
2023-07-14T03:19:18.503Z,99.90
2023-07-14T03:21:46.244Z,99.90
2023-07-14T03:24:13.878Z,99.90
2023-07-14T03:26:41.556Z,99.90
2023-07-14T03:29:10.520Z,99.90
2023-07-14T03:31:38.244Z,99.90
2023-07-14T03:34:06.175Z,99.90
2023-07-14T03:36:33.839Z,99.90
2023-07-14T03:39:20.486Z,99.90
2023-07-14T03:41:48.311Z,99.90
2023-07-14T03:44:15.937Z,99.90
2023-07-14T03:46:43.677Z,99.90
2023-07-14T03:49:11.409Z,99.90
2023-07-14T03:51:39.326Z,99.90
2023-07-14T03:54:07.504Z,99.90
2023-07-14T03:56:35.372Z,99.90
2023-07-14T03:59:03.406Z,99.90
2023-07-14T04:01:31.284Z,99.90
2023-07-14T04:04:01.408Z,99.90
2023-07-14T04:06:32.607Z,99.90
2023-07-14T04:09:01.804Z,99.90
2023-07-14T04:11:37.086Z,99.90
2023-07-14T04:14:06.284Z,99.90
2023-07-14T04:16:36.858Z,99.90
2023-07-14T04:19:05.096Z,99.90
2023-07-14T04:21:33.451Z,99.90
2023-07-14T04:24:01.127Z,99.90
2023-07-14T04:26:30.212Z,99.90
2023-07-14T04:28:58.580Z,99.90
2023-07-14T04:31:26.277Z,99.90
2023-07-14T04:33:53.989Z,99.90
2023-07-14T04:36:21.633Z,99.90
2023-07-14T04:39:10.836Z,99.90
2023-07-14T04:41:39.010Z,99.90
2023-07-14T04:44:10.171Z,99.90
2023-07-14T04:46:38.812Z,99.90
2023-07-14T04:49:07.603Z,99.90
2023-07-14T04:51:35.862Z,99.90
2023-07-14T04:54:04.141Z,99.90
2023-07-14T04:56:33.717Z,99.90
2023-07-14T04:59:01.509Z,99.90
2023-07-14T05:01:29.562Z,99.90
2023-07-14T05:03:57.765Z,99.90
2023-07-14T05:06:25.691Z,99.90
2023-07-14T05:08:53.455Z,99.90
2023-07-14T05:11:21.236Z,99.90
2023-07-14T05:13:52.580Z,99.90
2023-07-14T05:16:21.017Z,99.80
2023-07-14T05:18:49.485Z,99.90
2023-07-14T05:21:17.275Z,99.00
2023-07-14T05:23:44.919Z,99.90
2023-07-14T05:26:12.851Z,98.80
2023-07-14T05:28:40.733Z,99.70
2023-07-14T05:31:09.909Z,99.00
2023-07-14T05:33:37.613Z,98.60
2023-07-14T05:36:06.101Z,98.10
2023-07-14T05:38:33.711Z,96.80
2023-07-14T05:41:05.197Z,96.90
2023-07-14T05:43:33.180Z,95.80
2023-07-14T05:46:00.948Z,95.40
2023-07-14T05:48:28.696Z,94.70
2023-07-14T05:50:56.388Z,95.00
2023-07-14T05:53:24.035Z,93.90
2023-07-14T05:55:51.772Z,94.00
2023-07-14T05:58:19.501Z,94.30
2023-07-14T06:00:47.131Z,95.00
2023-07-14T06:03:19.800Z,94.80
2023-07-14T06:05:48.924Z,95.10
2023-07-14T06:08:17.200Z,94.40
2023-07-14T06:10:45.112Z,93.80
2023-07-14T06:13:12.769Z,92.70
2023-07-14T06:15:40.429Z,92.40
2023-07-14T06:18:08.163Z,90.00
2023-07-14T06:20:35.875Z,88.70
2023-07-14T06:23:03.763Z,90.20
2023-07-14T06:25:31.697Z,87.30
2023-07-14T06:27:59.442Z,89.20
2023-07-14T06:30:27.154Z,87.90
2023-07-14T06:32:54.889Z,86.50
2023-07-14T06:35:23.913Z,84.20
2023-07-14T06:37:51.590Z,87.50
2023-07-14T06:40:21.889Z,83.20
2023-07-14T06:42:49.618Z,82.90
2023-07-14T06:45:17.751Z,81.40
2023-07-14T06:47:45.415Z,80.90
2023-07-14T06:50:13.097Z,84.40
2023-07-14T06:52:40.729Z,82.20
2023-07-14T06:55:09.209Z,80.40
2023-07-14T06:57:37.136Z,79.40
2023-07-14T07:00:10.400Z,80.80
2023-07-14T07:02:38.261Z,80.80
2023-07-14T07:05:07.916Z,79.40
2023-07-14T07:07:35.785Z,78.10
2023-07-14T07:10:05.078Z,79.20
2023-07-14T07:12:33.169Z,78.30
2023-07-14T07:15:00.888Z,77.50
2023-07-14T07:17:28.758Z,79.90
2023-07-14T07:19:56.481Z,78.40
2023-07-14T07:22:24.287Z,79.10
2023-07-14T07:24:51.915Z,80.80
2023-07-14T07:27:19.620Z,78.30
2023-07-14T07:29:47.361Z,80.30
2023-07-14T07:32:15.085Z,79.30
2023-07-14T07:34:42.871Z,80.50
2023-07-14T07:37:11.894Z,81.80
2023-07-14T07:39:40.068Z,81.70
2023-07-14T07:42:08.982Z,82.40
2023-07-14T07:44:37.545Z,81.90
2023-07-14T07:47:05.743Z,83.30
2023-07-14T07:49:33.567Z,85.80
2023-07-14T07:52:01.277Z,85.00
2023-07-14T07:54:29.127Z,84.40
2023-07-14T07:56:56.871Z,85.20
2023-07-14T07:59:24.734Z,83.40
2023-07-14T08:01:52.931Z,82.80
2023-07-14T08:04:20.776Z,79.30
2023-07-14T08:06:48.579Z,81.30
2023-07-14T08:09:16.418Z,77.70
2023-07-14T08:11:44.206Z,78.90
2023-07-14T08:14:20.211Z,83.20
2023-07-14T08:16:47.966Z,81.00
2023-07-14T08:19:15.965Z,80.20
2023-07-14T08:21:43.719Z,83.50
2023-07-14T08:24:11.519Z,82.20
2023-07-14T08:26:40.434Z,80.30
2023-07-14T08:29:09.898Z,82.10
2023-07-14T08:31:37.713Z,82.50
2023-07-14T08:34:05.475Z,81.70
2023-07-14T08:36:33.239Z,83.20
2023-07-14T08:39:01.550Z,78.30
2023-07-14T08:41:31.880Z,79.40
2023-07-14T08:44:38.947Z,78.90
2023-07-14T08:47:23.482Z,77.50
2023-07-14T08:50:01.868Z,77.80
2023-07-14T08:52:35.765Z,78.30
2023-07-14T08:55:18.729Z,79.20
2023-07-14T08:57:58.190Z,78.40
2023-07-14T09:00:39.896Z,78.40
2023-07-14T09:03:13.699Z,79.60
2023-07-14T09:05:49.966Z,79.70
2023-07-14T09:08:17.781Z,80.20
2023-07-14T09:11:17.555Z,78.50
2023-07-14T09:13:57.762Z,82.60
2023-07-14T09:16:27.422Z,75.80
2023-07-14T09:19:08.017Z,78.00
2023-07-14T09:22:00.464Z,75.00
2023-07-14T09:24:41.656Z,77.90
2023-07-14T09:27:22.704Z,75.40
2023-07-14T09:29:51.409Z,75.90
2023-07-14T09:32:36.647Z,76.20
2023-07-14T09:35:26.754Z,74.10
2023-07-14T09:38:23.680Z,75.20
2023-07-14T09:40:59.389Z,75.50
2023-07-14T09:43:27.411Z,74.50
2023-07-14T09:45:56.251Z,74.90
2023-07-14T09:48:34.800Z,74.40
2023-07-14T09:51:12.345Z,74.30
2023-07-14T09:53:56.660Z,71.70
2023-07-14T09:56:30.622Z,70.00
2023-07-14T09:59:06.967Z,72.70
2023-07-14T10:01:35.099Z,72.50
2023-07-14T10:04:15.945Z,70.70
2023-07-14T10:06:43.739Z,70.20
2023-07-14T10:09:14.086Z,73.30
2023-07-14T10:11:50.268Z,72.00
2023-07-14T10:14:36.817Z,74.30
2023-07-14T10:17:06.257Z,76.70
2023-07-14T10:19:35.682Z,75.20
2023-07-14T10:22:20.334Z,72.70
2023-07-14T10:24:49.510Z,69.40
2023-07-14T10:27:25.166Z,72.30
2023-07-14T10:29:58.789Z,73.60
2023-07-14T10:32:34.462Z,72.20
2023-07-14T10:35:21.449Z,70.80
2023-07-14T10:38:10.909Z,68.50
2023-07-14T10:40:52.653Z,69.50
2023-07-14T10:43:27.395Z,70.20
2023-07-14T10:46:16.670Z,70.20
2023-07-14T10:48:50.454Z,71.70
2023-07-14T10:51:29.257Z,68.90
2023-07-14T10:54:05.208Z,68.50
2023-07-14T10:56:47.115Z,67.50
2023-07-14T10:59:29.752Z,68.50
2023-07-14T11:02:13.050Z,68.90
2023-07-14T11:04:48.583Z,65.00
2023-07-14T11:07:18.537Z,67.70
2023-07-14T11:09:47.527Z,67.50
2023-07-14T11:12:27.111Z,65.80
2023-07-14T11:15:13.528Z,67.90
2023-07-14T11:17:57.850Z,67.50
2023-07-14T11:20:47.012Z,65.50
2023-07-14T11:23:28.878Z,66.10
2023-07-14T11:26:18.862Z,67.80
2023-07-14T11:29:06.419Z,66.20
2023-07-14T11:31:54.969Z,69.80
2023-07-14T11:34:34.929Z,66.70
2023-07-14T11:37:21.599Z,67.30
2023-07-14T11:40:00.285Z,66.10
2023-07-14T11:42:31.680Z,67.50
2023-07-14T11:45:02.214Z,64.20
2023-07-14T11:47:37.061Z,65.50
2023-07-14T11:53:09.198Z,59.80
2023-07-14T11:55:41.835Z,61.00
2023-07-14T11:58:30.296Z,59.60
2023-07-14T12:01:05.045Z,60.20
2023-07-14T12:03:40.685Z,59.50
2023-07-14T12:06:15.925Z,60.90
2023-07-14T12:08:44.146Z,55.80
2023-07-14T12:11:40.645Z,56.90
2023-07-14T12:14:33.288Z,60.70
2023-07-14T12:17:01.676Z,60.40
2023-07-14T12:19:39.930Z,60.20
2023-07-14T12:22:10.368Z,60.20
2023-07-14T12:24:51.463Z,60.40
2023-07-14T12:27:35.922Z,62.50
2023-07-14T12:30:29.696Z,59.80
2023-07-14T12:33:06.527Z,58.50
2023-07-14T12:35:37.605Z,58.00
2023-07-14T12:38:10.275Z,59.80
2023-07-14T12:40:38.935Z,60.90
2023-07-14T12:43:10.826Z,61.20
2023-07-14T12:45:38.462Z,60.00
2023-07-14T12:48:07.948Z,60.60
2023-07-14T12:50:38.483Z,60.60
2023-07-14T12:53:06.098Z,60.40
2023-07-14T12:55:35.637Z,60.40
2023-07-14T12:58:08.672Z,59.30
2023-07-14T13:00:38.578Z,57.20
2023-07-14T13:03:11.611Z,57.70
2023-07-14T13:05:42.963Z,59.40
2023-07-14T13:08:24.727Z,58.40
2023-07-14T13:10:53.349Z,58.20
2023-07-14T13:13:26.674Z,60.80
2023-07-14T13:16:01.360Z,59.70
2023-07-14T13:18:32.823Z,59.20
2023-07-14T13:21:02.826Z,59.40
2023-07-14T13:23:32.952Z,61.30
2023-07-14T13:26:06.657Z,60.70
2023-07-14T13:28:41.243Z,60.60
2023-07-14T13:31:20.087Z,59.40
2023-07-14T13:33:48.833Z,59.80
2023-07-14T13:36:24.208Z,59.90
2023-07-14T13:38:52.289Z,61.20
2023-07-14T13:41:24.713Z,61.30
2023-07-14T13:43:53.805Z,61.90
2023-07-14T13:46:29.497Z,60.40
2023-07-14T13:48:57.205Z,59.60
2023-07-14T13:51:28.994Z,60.30
2023-07-14T13:53:57.088Z,60.30
2023-07-14T13:56:27.571Z,61.50
2023-07-14T13:59:14.798Z,62.00
2023-07-14T14:01:42.576Z,60.70
2023-07-14T14:04:14.344Z,61.50
2023-07-14T14:06:43.180Z,62.90
2023-07-14T14:09:21.570Z,63.00
2023-07-14T14:11:52.664Z,61.40
2023-07-14T14:14:21.667Z,60.80
2023-07-14T14:16:50.288Z,59.30
2023-07-14T14:19:24.428Z,60.90
2023-07-14T14:21:59.865Z,64.00
2023-07-14T14:24:27.773Z,60.40
2023-07-14T14:26:56.837Z,62.50
2023-07-14T14:29:29.135Z,60.60
2023-07-14T14:31:56.841Z,62.40
2023-07-14T14:34:24.554Z,60.40
2023-07-14T14:36:52.463Z,62.00
2023-07-14T14:39:22.701Z,61.50
2023-07-14T14:41:52.643Z,60.30
2023-07-14T14:44:22.992Z,61.70
2023-07-14T14:46:50.663Z,61.20
2023-07-14T14:49:19.347Z,61.50
2023-07-14T14:51:47.505Z,62.70
2023-07-14T14:54:16.370Z,62.40
2023-07-14T14:56:44.834Z,61.40
2023-07-14T14:59:19.789Z,61.00
2023-07-14T15:01:48.091Z,63.80
2023-07-14T15:04:23.698Z,65.00
2023-07-14T15:06:52.851Z,63.80
2023-07-14T15:09:20.786Z,64.00
2023-07-14T15:11:52.337Z,62.70
2023-07-14T15:14:32.184Z,63.40
2023-07-14T15:17:03.569Z,60.40
2023-07-14T15:19:33.686Z,61.30
2023-07-14T15:22:01.285Z,61.90
2023-07-14T15:24:28.910Z,62.90
2023-07-14T15:26:56.721Z,63.10
2023-07-14T15:29:24.471Z,62.60
2023-07-14T15:31:52.509Z,62.10
2023-07-14T15:34:20.913Z,61.60
2023-07-14T15:36:48.814Z,62.40
2023-07-14T15:39:17.415Z,63.90
2023-07-14T15:41:45.194Z,63.70
2023-07-14T15:44:15.887Z,63.90
2023-07-14T15:46:43.825Z,63.70
2023-07-14T15:49:17.792Z,63.90
2023-07-14T15:51:46.350Z,65.20
2023-07-14T15:54:33.087Z,66.00
2023-07-14T15:57:03.190Z,66.10
2023-07-14T15:59:31.590Z,65.70
2023-07-14T16:01:59.273Z,65.10
2023-07-14T16:04:26.999Z,65.90
2023-07-14T16:06:55.808Z,65.30
2023-07-14T16:09:32.432Z,64.70
2023-07-14T16:12:02.142Z,65.50
2023-07-14T16:14:31.263Z,65.90
2023-07-14T16:16:59.016Z,66.70
2023-07-14T16:19:26.705Z,67.90
2023-07-14T16:21:55.712Z,68.20
2023-07-14T16:24:36.780Z,67.30
2023-07-14T16:27:23.871Z,67.00
2023-07-14T16:29:52.796Z,67.20
2023-07-14T16:32:21.405Z,66.00
2023-07-14T16:34:50.601Z,67.80
2023-07-14T16:37:19.276Z,68.70
2023-07-14T16:39:48.042Z,69.70
2023-07-14T16:42:19.608Z,68.70
2023-07-14T16:44:47.680Z,69.80
2023-07-14T16:47:15.457Z,67.90
2023-07-14T16:49:43.214Z,70.20
2023-07-14T16:52:27.878Z,69.60
2023-07-14T16:54:55.568Z,69.00
2023-07-14T16:57:32.999Z,68.70
2023-07-14T17:00:00.700Z,69.30
2023-07-14T17:02:28.560Z,70.60
2023-07-14T17:04:56.931Z,71.90
2023-07-14T17:07:24.669Z,76.60
2023-07-14T17:09:52.352Z,78.00
2023-07-14T17:12:20.481Z,78.70
2023-07-14T17:14:48.500Z,79.30
2023-07-14T17:17:19.303Z,79.60
2023-07-14T17:19:47.645Z,79.30
2023-07-14T17:22:15.508Z,80.00
2023-07-14T17:24:50.154Z,80.00
2023-07-14T17:27:18.102Z,79.00
2023-07-14T17:29:52.063Z,78.60
2023-07-14T17:32:22.815Z,78.50
2023-07-14T17:34:51.659Z,79.40
2023-07-14T17:37:23.100Z,79.00
2023-07-14T17:39:52.782Z,80.00
2023-07-14T17:42:24.510Z,79.40
2023-07-14T17:44:56.204Z,79.10
2023-07-14T17:47:24.638Z,78.70
2023-07-14T17:49:52.319Z,79.50
2023-07-14T17:52:20.015Z,79.90
2023-07-14T17:54:48.606Z,80.40
2023-07-14T17:57:23.054Z,82.60
2023-07-14T17:59:52.550Z,82.60
2023-07-14T18:02:31.939Z,83.00
2023-07-14T18:05:00.148Z,83.60
2023-07-14T18:07:28.008Z,84.30
2023-07-14T18:09:55.763Z,84.60
2023-07-14T18:12:25.576Z,83.90
2023-07-14T18:14:53.790Z,84.40
2023-07-14T18:17:21.679Z,84.50
2023-07-14T18:19:49.711Z,84.20
2023-07-14T18:22:27.746Z,84.80
2023-07-14T18:24:57.807Z,85.70
2023-07-14T18:27:26.339Z,85.90
2023-07-14T18:29:54.110Z,86.00
2023-07-14T18:32:21.734Z,86.10
2023-07-14T18:34:49.404Z,86.30
2023-07-14T18:37:17.287Z,86.90
2023-07-14T18:39:48.423Z,87.60
2023-07-14T18:42:25.757Z,87.30
2023-07-14T18:44:54.161Z,87.40
2023-07-14T18:47:21.845Z,87.60
2023-07-14T18:49:49.818Z,87.70
2023-07-14T18:52:18.940Z,86.60
2023-07-14T18:54:46.840Z,87.90
2023-07-14T18:57:20.123Z,86.90
2023-07-14T18:59:48.721Z,87.10
2023-07-14T19:02:38.790Z,87.90
2023-07-14T19:05:10.131Z,88.60
2023-07-14T19:07:37.876Z,88.90
2023-07-14T19:10:06.990Z,89.30
2023-07-14T19:12:36.837Z,89.10
2023-07-14T19:15:22.454Z,88.60
2023-07-14T19:17:52.167Z,89.60
2023-07-14T19:20:21.135Z,89.70
2023-07-14T19:22:50.676Z,89.10
2023-07-14T19:25:22.134Z,89.30
2023-07-14T19:27:51.357Z,88.70
2023-07-14T19:30:22.957Z,89.90
2023-07-14T19:32:58.027Z,89.30
2023-07-14T19:35:25.994Z,89.30
2023-07-14T19:37:54.864Z,90.00
2023-07-14T19:40:25.798Z,89.10
2023-07-14T19:42:53.825Z,89.40
2023-07-14T19:45:26.107Z,88.50
2023-07-14T19:47:54.495Z,88.60
2023-07-14T19:50:23.900Z,89.30
2023-07-14T19:52:52.821Z,88.50
2023-07-14T19:55:30.016Z,88.80
2023-07-14T19:57:57.852Z,89.70
2023-07-14T20:00:26.105Z,89.80
2023-07-14T20:02:54.172Z,89.00
2023-07-14T20:05:25.867Z,89.60
2023-07-14T20:07:54.008Z,89.70
2023-07-14T20:10:25.658Z,89.80
2023-07-14T20:12:54.155Z,90.20
2023-07-14T20:15:24.815Z,90.00
2023-07-14T20:17:54.650Z,90.30
2023-07-14T20:20:22.568Z,90.70
2023-07-14T20:22:53.286Z,90.20
2023-07-14T20:25:21.434Z,90.70
2023-07-14T20:27:49.288Z,91.10
2023-07-14T20:30:20.378Z,90.80
2023-07-14T20:32:50.122Z,91.10
2023-07-14T20:35:21.105Z,91.20
2023-07-14T20:37:50.533Z,91.30
2023-07-14T20:40:20.148Z,91.10
2023-07-14T20:42:48.385Z,91.20
2023-07-14T20:45:21.852Z,91.10
2023-07-14T20:47:49.581Z,91.20
2023-07-14T20:50:17.865Z,90.90
2023-07-14T20:52:49.236Z,91.20
2023-07-14T20:55:28.745Z,90.90
2023-07-14T20:57:59.619Z,91.00
2023-07-14T21:00:27.730Z,90.80
2023-07-14T21:02:55.535Z,90.60
2023-07-14T21:05:27.358Z,90.60
2023-07-14T21:07:55.155Z,90.50
2023-07-14T21:10:23.060Z,90.70
2023-07-14T21:12:51.025Z,90.70
2023-07-14T21:15:18.834Z,90.90
2023-07-14T21:17:46.550Z,91.00
2023-07-14T21:20:17.294Z,91.00
2023-07-14T21:22:45.297Z,91.00
2023-07-14T21:25:15.410Z,91.00
2023-07-14T21:27:44.360Z,91.30
2023-07-14T21:30:12.853Z,91.40
2023-07-14T21:32:41.091Z,91.60
2023-07-14T21:35:20.027Z,91.80
2023-07-14T21:37:48.714Z,91.90
2023-07-14T21:40:16.996Z,92.10
2023-07-14T21:42:45.587Z,92.30
2023-07-14T21:45:16.470Z,92.10
2023-07-14T21:47:44.873Z,91.90
2023-07-14T21:50:13.686Z,91.80
2023-07-14T21:52:41.538Z,91.80
2023-07-14T21:55:17.216Z,91.80
2023-07-14T21:57:45.274Z,91.60
2023-07-14T22:00:18.317Z,92.70
2023-07-14T22:02:46.325Z,92.60
2023-07-14T22:05:16.043Z,92.90
2023-07-14T22:07:44.383Z,92.90
2023-07-14T22:10:17.738Z,93.10
2023-07-14T22:12:45.661Z,92.50
2023-07-14T22:15:22.234Z,92.60
2023-07-14T22:17:49.950Z,93.10
2023-07-14T22:20:18.558Z,93.90
2023-07-14T22:22:48.743Z,94.40
2023-07-14T22:25:16.635Z,95.00
2023-07-14T22:27:44.566Z,95.30
2023-07-14T22:30:13.268Z,95.70
2023-07-14T22:32:45.682Z,95.00
2023-07-14T22:35:19.225Z,94.40
2023-07-14T22:37:47.324Z,94.30
2023-07-14T22:40:17.215Z,94.60
2023-07-14T22:42:45.777Z,94.90
2023-07-14T22:45:16.351Z,95.60
2023-07-14T22:47:45.541Z,95.40
2023-07-14T22:50:15.391Z,95.50
2023-07-14T22:52:43.804Z,95.30
2023-07-14T22:55:17.152Z,95.50
2023-07-14T22:57:49.542Z,95.90
2023-07-14T23:00:18.764Z,95.30
2023-07-14T23:02:46.601Z,95.50
2023-07-14T23:05:20.107Z,95.90
2023-07-14T23:07:48.853Z,96.10
2023-07-14T23:10:16.653Z,96.20
2023-07-14T23:12:44.463Z,96.90
2023-07-14T23:15:18.218Z,97.40
2023-07-14T23:17:46.471Z,97.90
2023-07-14T23:20:15.525Z,98.20
2023-07-14T23:22:43.386Z,98.30
2023-07-14T23:25:20.189Z,99.20
2023-07-14T23:27:48.451Z,99.40
2023-07-14T23:30:16.199Z,99.20
2023-07-14T23:32:43.979Z,99.50
2023-07-14T23:35:16.785Z,99.70
2023-07-14T23:37:44.540Z,99.40
2023-07-14T23:40:19.360Z,99.50
2023-07-14T23:42:48.062Z,99.90
2023-07-14T23:45:19.997Z,99.90
2023-07-14T23:47:47.695Z,99.90
2023-07-14T23:50:15.547Z,99.90
2023-07-14T23:52:43.852Z,99.90
2023-07-14T23:55:25.189Z,99.90
2023-07-14T23:57:55.112Z,99.90
